createdAt,value
2023-01-11T00:01:12.649Z,4.87
2023-01-11T00:06:15.963Z,4.20
2023-01-11T00:11:19.605Z,4.87
2023-01-11T00:16:24.567Z,5.60
2023-01-11T00:21:27.976Z,5.47
2023-01-11T00:26:31.281Z,5.77
2023-01-11T00:31:36.018Z,5.80
2023-01-11T00:36:39.330Z,5.32
2023-01-11T00:41:59.931Z,6.30
2023-01-11T00:47:22.029Z,6.83
2023-01-11T00:52:25.399Z,6.82
2023-01-11T00:57:28.780Z,6.50
2023-01-11T01:02:35.074Z,6.40
2023-01-11T01:07:38.682Z,6.15
2023-01-11T01:12:59.377Z,5.60
2023-01-11T01:18:04.053Z,5.57
2023-01-11T01:23:07.326Z,5.50
2023-01-11T01:28:10.567Z,5.88
2023-01-11T01:33:15.179Z,5.57
2023-01-11T01:38:18.888Z,5.53
2023-01-11T01:43:22.169Z,6.70
2023-01-11T01:48:28.533Z,4.25
2023-01-11T01:53:37.205Z,3.78
2023-01-11T01:58:43.597Z,2.90
2023-01-11T02:03:49.214Z,2.60
2023-01-11T02:09:00.105Z,2.83
2023-01-11T02:14:07.765Z,2.50
2023-01-11T02:19:26.066Z,2.75
2023-01-11T02:24:48.731Z,2.20
2023-01-11T02:30:04.562Z,2.53
2023-01-11T02:35:18.233Z,2.27
2023-01-11T02:40:27.459Z,2.25
2023-01-11T02:45:42.386Z,2.40
2023-01-11T02:50:52.186Z,2.38
2023-01-11T02:55:58.417Z,2.30
2023-01-11T03:01:03.315Z,2.15
2023-01-11T03:06:14.371Z,2.50
2023-01-11T03:11:46.152Z,2.47
2023-01-11T03:16:56.870Z,2.13
2023-01-11T03:22:07.011Z,2.50
2023-01-11T03:27:18.681Z,2.70
2023-01-11T03:32:32.308Z,2.67
2023-01-11T03:37:39.305Z,2.80
2023-01-11T03:42:59.480Z,2.77
2023-01-11T03:48:06.093Z,3.50
2023-01-11T03:53:11.640Z,4.10
2023-01-11T03:58:15.406Z,4.10
2023-01-11T04:03:20.096Z,4.03
2023-01-11T04:08:23.367Z,4.55
2023-01-11T04:13:26.662Z,4.57
2023-01-11T04:18:31.454Z,5.10
2023-01-11T04:23:34.695Z,5.20
2023-01-11T04:28:37.943Z,5.50
2023-01-11T04:33:42.599Z,5.28
2023-01-11T04:38:45.845Z,6.45
2023-01-11T04:43:49.140Z,7.70
2023-01-11T04:48:53.924Z,8.88
2023-01-11T04:53:57.162Z,9.70
2023-01-11T04:59:00.736Z,11.63
2023-01-11T05:04:05.647Z,11.50
2023-01-11T05:09:13.350Z,13.30
2023-01-11T05:14:17.350Z,12.15
2023-01-11T05:19:22.882Z,11.95
2023-01-11T05:24:26.195Z,12.00
2023-01-11T05:29:29.686Z,10.90
2023-01-11T05:34:34.416Z,10.70
2023-01-11T05:39:37.692Z,11.77
2023-01-11T05:44:58.682Z,13.27
2023-01-11T05:50:03.305Z,14.60
2023-01-11T05:55:07.886Z,15.52
2023-01-11T06:00:12.761Z,15.98
2023-01-11T06:05:17.728Z,15.77
2023-01-11T06:10:21.023Z,14.32
2023-01-11T06:15:24.316Z,15.20
2023-01-11T06:20:28.947Z,15.23
2023-01-11T06:25:32.918Z,15.43
2023-01-11T06:30:36.327Z,15.50
2023-01-11T06:35:42.610Z,15.00
2023-01-11T06:40:53.360Z,16.50
2023-01-11T06:45:57.301Z,18.30
2023-01-11T06:51:02.007Z,17.02
2023-01-11T06:56:05.741Z,17.43
2023-01-11T07:01:09.352Z,17.02
2023-01-11T07:06:14.359Z,19.23
2023-01-11T07:11:17.658Z,19.85
2023-01-11T07:16:21.814Z,21.15
2023-01-11T07:21:26.513Z,19.70
2023-01-11T07:26:29.929Z,20.13
2023-01-11T07:31:33.270Z,20.00
2023-01-11T07:36:39.725Z,21.57
2023-01-11T07:42:00.324Z,21.10
2023-01-11T07:47:03.677Z,22.40
2023-01-11T07:52:09.317Z,22.73
2023-01-11T07:57:12.781Z,22.15
2023-01-11T08:02:16.127Z,21.30
2023-01-11T08:07:20.814Z,20.33
2023-01-11T08:12:41.719Z,20.08
2023-01-11T08:17:44.972Z,18.67
2023-01-11T08:22:49.656Z,17.90
2023-01-11T08:27:53.360Z,17.73
2023-01-11T08:32:57.783Z,19.73
2023-01-11T08:38:02.449Z,20.92
2023-01-11T08:43:05.718Z,20.60
2023-01-11T08:48:09.008Z,17.52
2023-01-11T08:53:13.806Z,16.67
2023-01-11T08:58:17.510Z,17.23
2023-01-11T09:03:20.982Z,17.63
2023-01-11T09:08:26.461Z,16.83
2023-01-11T09:13:29.725Z,15.75
2023-01-11T09:18:33.021Z,16.67
2023-01-11T09:23:38.203Z,15.90
2023-01-11T09:28:41.681Z,15.80
2023-01-11T09:33:44.918Z,15.38
2023-01-11T09:38:50.594Z,15.85
2023-01-11T09:44:02.276Z,12.65
2023-01-11T09:49:07.687Z,12.50
2023-01-11T09:54:19.456Z,12.10
2023-01-11T09:59:31.117Z,11.63
2023-01-11T10:04:50.227Z,9.80
2023-01-11T10:18:35.336Z,10.23
2023-01-11T10:21:06.832Z,9.50
2023-01-11T10:26:25.335Z,8.60
2023-01-11T10:31:47.414Z,7.50
2023-01-11T10:37:11.006Z,7.95
2023-01-11T10:42:21.388Z,7.60
2023-01-11T10:47:30.620Z,7.33
2023-01-11T10:52:41.567Z,7.23
2023-01-11T10:58:00.370Z,7.50
2023-01-11T11:03:39.611Z,6.57
2023-01-11T11:08:51.800Z,7.18
2023-01-11T11:14:01.973Z,8.35
2023-01-11T11:19:05.234Z,6.57
2023-01-11T11:24:17.815Z,6.00
2023-01-11T11:29:30.538Z,5.50
2023-01-11T11:34:33.772Z,5.17
2023-01-11T11:39:37.036Z,5.33
2023-01-11T11:44:41.677Z,5.00
2023-01-11T11:49:45.100Z,5.80
2023-01-11T11:54:52.915Z,6.87
2023-01-11T12:00:03.878Z,6.03
2023-01-11T12:05:10.906Z,6.07
2023-01-11T12:10:16.819Z,6.47
2023-01-11T12:15:24.642Z,6.73
2023-01-11T12:20:31.669Z,6.33
2023-01-11T12:25:42.607Z,6.70
2023-01-11T12:30:57.081Z,6.85
2023-01-11T12:36:05.912Z,7.27
2023-01-11T12:41:43.950Z,6.88
2023-01-11T12:47:11.224Z,8.40
2023-01-11T12:52:39.341Z,8.05
2023-01-11T12:58:00.098Z,7.93
2023-01-11T13:03:20.525Z,7.70
2023-01-11T13:08:32.529Z,6.90
2023-01-11T13:13:46.226Z,7.28
2023-01-11T13:18:59.190Z,6.53
2023-01-11T13:24:06.685Z,6.22
2023-01-11T13:29:16.789Z,7.13
2023-01-11T13:34:27.690Z,8.30
2023-01-11T13:39:35.768Z,9.85
2023-01-11T13:44:45.723Z,9.95
2023-01-11T13:50:06.215Z,9.93
2023-01-11T13:55:20.771Z,10.67
2023-01-11T14:00:32.765Z,9.95
2023-01-11T14:05:45.807Z,10.70
2023-01-11T14:10:57.301Z,10.88
2023-01-11T14:16:09.035Z,10.63
2023-01-11T14:21:23.248Z,10.57
2023-01-11T14:26:58.723Z,11.70
2023-01-11T14:32:15.360Z,12.15
2023-01-11T14:37:42.271Z,11.67
2023-01-11T14:43:26.079Z,12.52
2023-01-11T14:48:36.080Z,11.63
2023-01-11T14:53:44.655Z,13.07
2023-01-11T14:59:04.115Z,11.75
2023-01-11T15:04:22.395Z,10.90
2023-01-11T15:09:47.189Z,12.13
2023-01-11T15:14:54.432Z,12.15
2023-01-11T15:20:08.245Z,13.03
2023-01-11T15:25:23.930Z,13.10
2023-01-11T15:30:39.222Z,12.63
2023-01-11T15:35:42.512Z,12.98
2023-01-11T15:40:47.594Z,11.60
2023-01-11T15:46:46.849Z,14.02
2023-01-11T15:52:12.064Z,13.50
2023-01-11T15:57:44.858Z,15.13
2023-01-11T16:03:25.535Z,13.10
2023-01-11T16:08:32.368Z,13.43
2023-01-11T16:13:54.211Z,14.07
2023-01-11T16:18:59.983Z,11.90
2023-01-11T16:24:06.059Z,11.88
2023-01-11T16:29:22.132Z,12.60
2023-01-11T16:34:25.685Z,11.48
2023-01-11T16:39:34.230Z,10.37
2023-01-11T16:44:45.684Z,10.70
2023-01-11T16:49:52.351Z,10.23
2023-01-11T16:54:56.807Z,10.82
2023-01-11T17:00:04.984Z,11.77
2023-01-11T17:05:19.735Z,11.75
2023-01-11T17:10:25.125Z,12.73
2023-01-11T17:15:34.268Z,14.98
2023-01-11T17:20:37.543Z,16.95
2023-01-11T17:25:44.911Z,24.88
2023-01-11T17:30:52.634Z,19.05
2023-01-11T17:35:56.387Z,15.55
2023-01-11T17:41:01.353Z,12.53
2023-01-11T17:46:06.568Z,10.73
2023-01-11T17:51:09.872Z,12.87
2023-01-11T17:56:39.465Z,11.43
2023-01-11T18:01:48.202Z,12.23
2023-01-11T18:06:54.158Z,12.10
2023-01-11T18:12:08.059Z,12.75
2023-01-11T18:17:36.192Z,12.80
2023-01-11T18:22:41.975Z,16.92
2023-01-11T18:27:47.420Z,12.93
2023-01-11T18:32:50.666Z,8.52
2023-01-11T18:37:53.920Z,4.82
2023-01-11T18:42:58.500Z,3.60
2023-01-11T18:48:01.712Z,3.70
2023-01-11T18:53:04.893Z,4.40
2023-01-11T18:58:10.219Z,2.78
2023-01-11T19:08:22.103Z,5.65
2023-01-11T19:13:26.726Z,5.80
2023-01-11T19:18:30.302Z,4.47
2023-01-11T19:23:35.312Z,5.83
2023-01-11T19:28:39.935Z,5.30
2023-01-11T19:33:43.286Z,4.53
2023-01-11T19:38:46.562Z,6.20
2023-01-11T19:43:51.191Z,4.90
2023-01-11T19:48:54.709Z,5.75
2023-01-11T19:54:01.035Z,6.63
2023-01-11T19:59:05.763Z,5.38
2023-01-11T20:04:10.927Z,5.50
2023-01-11T20:09:14.226Z,5.72
2023-01-11T20:14:18.941Z,5.10
2023-01-11T20:19:22.227Z,5.80
2023-01-11T20:24:29.585Z,5.17
2023-01-11T20:29:34.471Z,4.90
2023-01-11T20:34:37.740Z,4.93
2023-01-11T20:39:40.992Z,4.40
2023-01-11T20:44:45.583Z,4.30
2023-01-11T20:49:48.797Z,5.55
2023-01-11T20:54:52.040Z,6.70
2023-01-11T20:59:56.803Z,5.22
2023-01-11T21:05:00.207Z,5.87
2023-01-11T21:10:03.792Z,7.13
2023-01-11T21:15:10.894Z,4.88
2023-01-11T21:20:14.571Z,5.40
2023-01-11T21:25:18.298Z,4.13
2023-01-11T21:30:23.458Z,4.10
2023-01-11T21:35:27.183Z,3.58
2023-01-11T21:40:31.997Z,3.90
2023-01-11T21:45:36.650Z,3.10
2023-01-11T21:50:39.944Z,3.30
2023-01-11T21:55:43.324Z,3.25
2023-01-11T22:00:48.260Z,2.65
2023-01-11T22:05:52.458Z,4.00
2023-01-11T22:10:59.856Z,2.80
2023-01-11T22:16:05.932Z,2.80
2023-01-11T22:21:11.660Z,2.63
2023-01-11T22:26:16.619Z,2.63
2023-01-11T22:31:21.622Z,2.73
2023-01-11T22:36:26.038Z,3.17
2023-01-11T22:41:29.394Z,2.00
2023-01-11T22:46:34.092Z,2.13
2023-01-11T22:51:37.574Z,2.92
2023-01-11T22:56:41.449Z,2.38
2023-01-11T23:01:46.047Z,1.90
2023-01-11T23:06:49.318Z,2.10
2023-01-11T23:12:10.362Z,2.05
2023-01-11T23:17:15.597Z,2.33
2023-01-11T23:22:18.873Z,2.50
2023-01-11T23:27:22.106Z,2.60
2023-01-11T23:32:27.653Z,2.40
2023-01-11T23:37:31.003Z,2.27
2023-01-11T23:42:35.698Z,1.27
2023-01-11T23:47:40.275Z,1.90
2023-01-11T23:52:43.607Z,2.50
2023-01-11T23:58:06.833Z,2.30
